createdAt,value
2022-10-08T00:00:46.521Z,0.00
2022-10-08T00:01:46.584Z,0.00
2022-10-08T00:02:46.735Z,0.00
2022-10-08T00:03:46.530Z,0.00
2022-10-08T00:04:46.463Z,0.00
2022-10-08T00:05:46.457Z,0.00
2022-10-08T00:06:46.442Z,0.00
2022-10-08T00:07:46.435Z,0.00
2022-10-08T00:08:46.424Z,0.00
2022-10-08T00:09:46.410Z,0.00
2022-10-08T00:10:46.402Z,0.00
2022-10-08T00:11:46.412Z,0.00
2022-10-08T00:12:46.687Z,0.00
2022-10-08T00:13:46.372Z,0.00
2022-10-08T00:14:46.357Z,0.00
2022-10-08T00:15:46.532Z,0.00
2022-10-08T00:16:46.331Z,0.00
2022-10-08T00:17:46.322Z,0.00
2022-10-08T00:18:46.310Z,0.00
2022-10-08T00:19:46.299Z,0.00
2022-10-08T00:20:46.288Z,0.00
2022-10-08T00:21:46.279Z,0.00
2022-10-08T00:22:46.600Z,0.00
2022-10-08T00:23:46.255Z,0.00
2022-10-08T00:24:46.246Z,0.00
2022-10-08T00:25:46.233Z,0.00
2022-10-08T00:26:46.223Z,0.00
2022-10-08T00:27:46.237Z,0.00
2022-10-08T00:28:46.327Z,0.00
2022-10-08T00:29:46.191Z,0.00
2022-10-08T00:30:46.186Z,0.00
2022-10-08T00:31:46.341Z,0.00
2022-10-08T00:32:46.481Z,0.00
2022-10-08T00:33:46.190Z,0.00
2022-10-08T00:34:46.153Z,0.00
2022-10-08T00:35:46.125Z,0.00
2022-10-08T00:36:46.116Z,0.00
2022-10-08T00:37:46.106Z,0.00
2022-10-08T00:38:46.091Z,0.00
2022-10-08T00:39:46.081Z,0.00
2022-10-08T00:40:46.066Z,0.00
2022-10-08T00:41:46.060Z,0.00
2022-10-08T00:42:46.272Z,0.00
2022-10-08T00:43:46.060Z,0.00
2022-10-08T00:44:46.024Z,0.00
2022-10-08T00:45:46.145Z,0.00
2022-10-08T00:46:46.003Z,0.00
2022-10-08T00:47:45.991Z,0.00
2022-10-08T00:48:45.982Z,0.00
2022-10-08T00:49:45.969Z,0.00
2022-10-08T00:50:45.958Z,0.00
2022-10-08T00:51:45.952Z,0.00
2022-10-08T00:52:46.301Z,0.00
2022-10-08T00:53:45.929Z,0.00
2022-10-08T00:54:45.918Z,0.00
2022-10-08T00:55:45.904Z,0.00
2022-10-08T00:56:45.892Z,0.00
2022-10-08T00:57:45.881Z,0.00
2022-10-08T00:58:45.870Z,0.00
2022-10-08T00:59:45.890Z,0.00
2022-10-08T01:00:46.000Z,0.00
2022-10-08T01:01:45.941Z,0.00
2022-10-08T01:02:46.249Z,0.00
2022-10-08T01:03:45.914Z,0.00
2022-10-08T01:04:45.963Z,0.00
2022-10-08T01:05:45.899Z,0.00
2022-10-08T01:06:45.860Z,0.00
2022-10-08T01:07:45.770Z,0.00
2022-10-08T01:08:45.761Z,0.00
2022-10-08T01:09:45.749Z,0.00
2022-10-08T01:10:45.740Z,0.00
2022-10-08T01:11:45.726Z,0.00
2022-10-08T01:12:45.894Z,0.00
2022-10-08T01:13:45.704Z,0.00
2022-10-08T01:14:45.695Z,0.00
2022-10-08T01:15:45.706Z,0.00
2022-10-08T01:16:45.831Z,0.00
2022-10-08T01:17:45.659Z,0.00
2022-10-08T01:18:45.654Z,0.00
2022-10-08T01:19:45.644Z,0.00
2022-10-08T01:20:45.627Z,0.00
2022-10-08T01:21:45.614Z,0.00
2022-10-08T01:22:45.917Z,0.00
2022-10-08T01:23:45.592Z,0.00
2022-10-08T01:24:45.592Z,0.00
2022-10-08T01:25:45.569Z,0.00
2022-10-08T01:26:45.563Z,0.00
2022-10-08T01:27:45.556Z,0.00
2022-10-08T01:28:45.709Z,0.00
2022-10-08T01:29:45.528Z,0.00
2022-10-08T01:30:45.523Z,0.00
2022-10-08T01:31:45.649Z,0.00
2022-10-08T01:32:45.836Z,0.00
2022-10-08T01:33:45.479Z,0.00
2022-10-08T01:34:45.470Z,0.00
2022-10-08T01:35:45.459Z,0.00
2022-10-08T01:36:45.448Z,0.00
2022-10-08T01:37:45.440Z,0.00
2022-10-08T01:38:45.430Z,0.00
2022-10-08T01:39:45.413Z,0.00
2022-10-08T01:40:45.404Z,0.00
2022-10-08T01:41:45.392Z,0.00
2022-10-08T01:42:45.687Z,0.00
2022-10-08T01:43:45.368Z,0.00
2022-10-08T01:44:45.359Z,0.00
2022-10-08T01:45:45.369Z,0.00
2022-10-08T01:46:45.337Z,0.00
2022-10-08T01:47:45.347Z,0.00
2022-10-08T01:48:45.315Z,0.00
2022-10-08T01:49:45.302Z,0.00
2022-10-08T01:50:45.293Z,0.00
2022-10-08T01:51:45.279Z,0.00
2022-10-08T01:52:45.667Z,0.00
2022-10-08T01:53:45.256Z,0.00
2022-10-08T01:54:45.248Z,0.00
2022-10-08T01:55:45.235Z,0.00
2022-10-08T01:56:45.224Z,0.00
2022-10-08T01:57:45.212Z,0.00
2022-10-08T01:58:45.202Z,0.00
2022-10-08T01:59:45.190Z,0.00
2022-10-08T02:00:45.207Z,0.00
2022-10-08T02:01:45.229Z,0.00
2022-10-08T02:02:45.537Z,0.00
2022-10-08T02:03:45.168Z,0.00
2022-10-08T02:04:45.136Z,0.00
2022-10-08T02:05:45.123Z,0.00
2022-10-08T02:06:45.115Z,0.00
2022-10-08T02:07:45.103Z,0.00
2022-10-08T02:08:45.094Z,0.00
2022-10-08T02:09:45.080Z,0.00
2022-10-08T02:10:45.073Z,0.00
2022-10-08T02:11:45.057Z,0.00
2022-10-08T02:12:45.519Z,0.00
2022-10-08T02:13:45.037Z,0.00
2022-10-08T02:14:45.028Z,0.00
2022-10-08T02:15:45.013Z,0.00
2022-10-08T02:16:45.037Z,0.00
2022-10-08T02:17:44.990Z,0.00
2022-10-08T02:18:44.981Z,0.00
2022-10-08T02:19:44.991Z,0.00
2022-10-08T02:20:44.960Z,0.00
2022-10-08T02:21:44.946Z,0.00
2022-10-08T02:22:45.341Z,0.00
2022-10-08T02:23:44.925Z,0.00
2022-10-08T02:24:44.919Z,0.00
2022-10-08T02:25:44.902Z,0.00
2022-10-08T02:26:44.894Z,0.00
2022-10-08T02:27:44.880Z,0.00
2022-10-08T02:28:44.932Z,0.00
2022-10-08T02:29:44.862Z,0.00
2022-10-08T02:30:44.851Z,0.00
2022-10-08T02:31:44.885Z,0.00
2022-10-08T02:32:45.108Z,0.00
2022-10-08T02:33:44.813Z,0.00
2022-10-08T02:34:44.806Z,0.00
2022-10-08T02:35:44.829Z,0.00
2022-10-08T02:36:44.785Z,0.00
2022-10-08T02:37:44.770Z,0.00
2022-10-08T02:38:44.761Z,0.00
2022-10-08T02:39:44.749Z,0.00
2022-10-08T02:40:44.739Z,0.00
2022-10-08T02:41:44.724Z,0.00
2022-10-08T02:42:45.043Z,0.00
2022-10-08T02:43:44.701Z,0.00
2022-10-08T02:44:44.692Z,0.00
2022-10-08T02:45:44.724Z,0.00
2022-10-08T02:46:44.670Z,0.00
2022-10-08T02:47:44.658Z,0.00
2022-10-08T02:48:44.648Z,0.00
2022-10-08T02:49:44.636Z,0.00
2022-10-08T02:50:44.624Z,0.00
2022-10-08T02:51:44.635Z,0.00
2022-10-08T02:52:44.953Z,0.00
2022-10-08T02:53:44.589Z,0.00
2022-10-08T02:54:44.633Z,0.00
2022-10-08T02:55:44.576Z,0.00
2022-10-08T02:56:44.563Z,0.00
2022-10-08T02:57:44.546Z,0.00
2022-10-08T02:58:44.538Z,0.00
2022-10-08T02:59:44.522Z,0.00
2022-10-08T03:00:44.523Z,0.00
2022-10-08T03:01:44.500Z,0.00
2022-10-08T03:02:44.954Z,0.00
2022-10-08T03:03:44.490Z,0.00
2022-10-08T03:04:44.470Z,0.00
2022-10-08T03:05:44.460Z,0.00
2022-10-08T03:06:44.447Z,0.00
2022-10-08T03:07:44.509Z,0.00
2022-10-08T03:08:44.424Z,0.00
2022-10-08T03:09:44.419Z,0.00
2022-10-08T03:10:44.402Z,0.00
2022-10-08T03:11:44.389Z,0.00
2022-10-08T03:12:44.722Z,0.00
2022-10-08T03:13:44.369Z,0.00
2022-10-08T03:14:44.358Z,0.00
2022-10-08T03:15:44.346Z,0.00
2022-10-08T03:16:44.364Z,0.00
2022-10-08T03:17:44.323Z,0.00
2022-10-08T03:18:44.312Z,0.00
2022-10-08T03:19:44.305Z,0.00
2022-10-08T03:20:44.291Z,0.00
2022-10-08T03:21:44.281Z,0.00
2022-10-08T03:22:44.609Z,0.00
2022-10-08T03:23:44.279Z,0.00
2022-10-08T03:24:44.247Z,0.00
2022-10-08T03:25:44.238Z,0.00
2022-10-08T03:26:44.225Z,0.00
2022-10-08T03:27:44.212Z,0.00
2022-10-08T03:28:44.286Z,0.00
2022-10-08T03:29:44.201Z,0.00
2022-10-08T03:30:44.243Z,0.00
2022-10-08T03:31:44.167Z,0.00
2022-10-08T03:32:44.570Z,0.00
2022-10-08T03:33:44.146Z,0.00
2022-10-08T03:34:44.135Z,0.00
2022-10-08T03:35:44.125Z,0.00
2022-10-08T03:36:44.114Z,0.00
2022-10-08T03:37:44.101Z,0.00
2022-10-08T03:38:44.090Z,0.00
2022-10-08T03:39:44.102Z,0.00
2022-10-08T03:40:44.070Z,0.00
2022-10-08T03:41:44.057Z,0.00
2022-10-08T03:42:44.394Z,0.00
2022-10-08T03:43:44.033Z,0.00
2022-10-08T03:44:44.023Z,0.00
2022-10-08T03:45:44.055Z,0.00
2022-10-08T03:46:44.001Z,0.00
2022-10-08T03:47:43.988Z,0.00
2022-10-08T03:48:43.979Z,0.00
2022-10-08T03:49:43.968Z,0.00
2022-10-08T03:50:43.956Z,0.00
2022-10-08T03:51:43.944Z,0.00
2022-10-08T03:52:44.208Z,0.00
2022-10-08T03:53:43.922Z,0.00
2022-10-08T03:54:43.915Z,0.00
2022-10-08T03:55:43.925Z,0.00
2022-10-08T03:56:43.889Z,0.00
2022-10-08T03:57:43.889Z,0.00
2022-10-08T03:58:43.869Z,0.00
2022-10-08T03:59:43.856Z,0.00
2022-10-08T04:00:43.846Z,0.00
2022-10-08T04:01:43.955Z,0.00
2022-10-08T04:02:43.929Z,0.00
2022-10-08T04:03:43.809Z,0.00
2022-10-08T04:04:43.800Z,0.00
2022-10-08T04:05:43.789Z,0.00
2022-10-08T04:06:43.780Z,0.00
2022-10-08T04:07:43.766Z,0.00
2022-10-08T04:08:43.757Z,0.00
2022-10-08T04:09:43.744Z,0.00
2022-10-08T04:10:43.741Z,0.00
2022-10-08T04:11:43.745Z,0.00
2022-10-08T04:12:43.728Z,0.00
2022-10-08T04:13:43.701Z,0.00
2022-10-08T04:14:43.692Z,0.00
2022-10-08T04:15:43.783Z,0.00
2022-10-08T04:16:43.674Z,0.00
2022-10-08T04:17:43.655Z,0.00
2022-10-08T04:18:43.650Z,0.00
2022-10-08T04:19:43.632Z,0.00
2022-10-08T04:20:43.625Z,0.00
2022-10-08T04:21:43.614Z,0.00
2022-10-08T04:22:43.782Z,0.00
2022-10-08T04:23:43.590Z,0.00
2022-10-08T04:24:43.588Z,0.00
2022-10-08T04:25:43.576Z,0.00
2022-10-08T04:26:43.560Z,0.00
2022-10-08T04:27:43.568Z,0.00
2022-10-08T04:28:43.637Z,0.00
2022-10-08T04:29:43.527Z,0.00
2022-10-08T04:30:43.571Z,0.00
2022-10-08T04:31:43.502Z,0.00
2022-10-08T04:32:43.642Z,0.00
2022-10-08T04:33:43.478Z,0.00
2022-10-08T04:34:43.472Z,0.00
2022-10-08T04:35:43.456Z,0.00
2022-10-08T04:36:43.448Z,0.00
2022-10-08T04:37:43.434Z,0.00
2022-10-08T04:38:43.423Z,0.00
2022-10-08T04:39:43.412Z,0.00
2022-10-08T04:40:43.402Z,0.00
2022-10-08T04:41:43.392Z,0.00
2022-10-08T04:42:43.436Z,0.00
2022-10-08T04:43:43.392Z,0.00
2022-10-08T04:44:43.357Z,0.00
2022-10-08T04:45:43.343Z,0.00
2022-10-08T04:46:43.435Z,0.00
2022-10-08T04:47:43.322Z,0.00
2022-10-08T04:48:43.313Z,0.00
2022-10-08T04:49:43.299Z,0.00
2022-10-08T04:50:43.290Z,0.00
2022-10-08T04:51:43.279Z,0.00
2022-10-08T04:52:43.268Z,0.00
2022-10-08T04:53:43.255Z,0.00
2022-10-08T04:54:43.246Z,0.00
2022-10-08T04:55:43.232Z,0.00
2022-10-08T04:56:43.288Z,0.00
2022-10-08T04:57:43.212Z,0.00
2022-10-08T04:58:43.202Z,0.00
2022-10-08T04:59:59.715Z,0.00
2022-10-08T05:00:44.206Z,0.00
2022-10-08T05:01:43.235Z,0.00
2022-10-08T05:02:43.204Z,0.00
2022-10-08T05:03:43.149Z,0.00
2022-10-08T05:04:43.135Z,4.00
2022-10-08T05:05:43.127Z,4.00
2022-10-08T05:06:43.111Z,0.00
2022-10-08T05:07:43.100Z,0.00
2022-10-08T05:08:43.090Z,4.00
2022-10-08T05:09:43.079Z,4.00
2022-10-08T05:10:43.074Z,4.00
2022-10-08T05:11:43.060Z,8.00
2022-10-08T05:12:43.044Z,8.00
2022-10-08T05:13:43.034Z,8.00
2022-10-08T05:14:43.025Z,8.00
2022-10-08T05:15:43.070Z,12.00
2022-10-08T05:16:43.000Z,12.00
2022-10-08T05:17:43.041Z,16.00
2022-10-08T05:18:42.977Z,20.00
2022-10-08T05:19:42.969Z,28.00
2022-10-08T05:20:42.955Z,32.00
2022-10-08T05:21:42.946Z,36.00
2022-10-08T05:22:43.002Z,44.00
2022-10-08T05:23:42.924Z,48.00
2022-10-08T05:24:42.911Z,56.00
2022-10-08T05:25:42.926Z,64.00
2022-10-08T05:26:59.273Z,72.00
2022-10-08T05:27:43.903Z,80.00
2022-10-08T05:28:42.929Z,92.00
2022-10-08T05:29:42.859Z,108.00
2022-10-08T05:30:42.844Z,124.00
2022-10-08T05:31:42.861Z,144.00
2022-10-08T05:32:42.822Z,164.00
2022-10-08T05:33:42.816Z,188.00
2022-10-08T05:34:42.798Z,212.00
2022-10-08T05:35:42.788Z,236.00
2022-10-08T05:36:42.777Z,252.00
2022-10-08T05:37:42.767Z,276.00
2022-10-08T05:38:42.754Z,300.00
2022-10-08T05:39:42.747Z,328.00
2022-10-08T05:40:42.732Z,360.00
2022-10-08T05:41:42.871Z,392.00
2022-10-08T05:42:42.711Z,432.00
2022-10-08T05:43:42.699Z,472.00
2022-10-08T05:44:45.429Z,512.00
2022-10-08T05:45:42.679Z,552.00
2022-10-08T05:46:42.718Z,592.00
2022-10-08T05:47:42.677Z,636.00
2022-10-08T05:48:42.643Z,680.00
2022-10-08T05:49:42.632Z,720.00
2022-10-08T05:50:42.770Z,760.00
2022-10-08T05:51:42.609Z,800.00
2022-10-08T05:52:42.597Z,844.00
2022-10-08T05:53:42.588Z,880.00
2022-10-08T05:54:42.574Z,928.00
2022-10-08T05:55:42.668Z,976.00
2022-10-08T05:56:42.552Z,1024.00
2022-10-08T05:57:42.545Z,1072.00
2022-10-08T05:58:42.689Z,1120.00
2022-10-08T05:59:42.533Z,1176.00
2022-10-08T06:00:42.509Z,1232.00
2022-10-08T06:01:42.797Z,1284.00
2022-10-08T06:02:42.545Z,1332.00
2022-10-08T06:03:42.498Z,1384.00
2022-10-08T06:04:42.532Z,1436.00
2022-10-08T06:05:42.456Z,1488.00
2022-10-08T06:06:42.441Z,1540.00
2022-10-08T06:07:42.429Z,1592.00
2022-10-08T06:08:42.419Z,1640.00
2022-10-08T06:09:42.410Z,1700.00
2022-10-08T06:10:42.396Z,1760.00
2022-10-08T06:11:42.387Z,1804.00
2022-10-08T06:12:42.374Z,1860.00
2022-10-08T06:13:42.364Z,1924.00
2022-10-08T06:14:42.351Z,1992.00
2022-10-08T06:15:42.341Z,2056.00
2022-10-08T06:16:42.413Z,2136.00
2022-10-08T06:17:42.318Z,2216.00
2022-10-08T06:18:42.310Z,2352.00
2022-10-08T06:19:42.317Z,2492.00
2022-10-08T06:20:42.284Z,2584.00
2022-10-08T06:21:42.275Z,2680.00
2022-10-08T06:22:42.262Z,2748.00
2022-10-08T06:23:42.254Z,2816.00
2022-10-08T06:24:42.243Z,2852.00
2022-10-08T06:25:42.231Z,2896.00
2022-10-08T06:26:42.223Z,2964.00
2022-10-08T06:27:42.205Z,3040.00
2022-10-08T06:28:42.255Z,3100.00
2022-10-08T06:29:42.190Z,3176.00
2022-10-08T06:30:42.171Z,3232.00
2022-10-08T06:31:42.248Z,3300.00
2022-10-08T06:32:42.153Z,3380.00
2022-10-08T06:33:42.141Z,3472.00
2022-10-08T06:34:42.130Z,3560.00
2022-10-08T06:35:42.141Z,3632.00
2022-10-08T06:36:42.106Z,3676.00
2022-10-08T06:37:42.108Z,3720.00
2022-10-08T06:38:42.087Z,3820.00
2022-10-08T06:39:47.521Z,3892.00
2022-10-08T06:40:42.063Z,3972.00
2022-10-08T06:41:42.056Z,4092.00
2022-10-08T06:42:42.038Z,4136.00
2022-10-08T06:43:42.028Z,4156.00
2022-10-08T06:44:42.016Z,4216.00
2022-10-08T06:45:42.007Z,4340.00
2022-10-08T06:46:42.076Z,4464.00
2022-10-08T06:47:41.983Z,4744.00
2022-10-08T06:48:41.970Z,4972.00
2022-10-08T06:49:41.962Z,5036.00
2022-10-08T06:50:42.055Z,4832.00
2022-10-08T06:51:41.961Z,4664.00
2022-10-08T06:52:41.925Z,4884.00
2022-10-08T06:53:41.919Z,5028.00
2022-10-08T06:54:41.902Z,5008.00
2022-10-08T06:55:41.899Z,5044.00
2022-10-08T06:56:41.883Z,5140.00
2022-10-08T06:57:41.872Z,5108.00
2022-10-08T06:58:41.860Z,5028.00
2022-10-08T06:59:41.849Z,5024.00
2022-10-08T07:00:41.893Z,5020.00
2022-10-08T07:01:42.009Z,4952.00
2022-10-08T07:02:41.830Z,5012.00
2022-10-08T07:03:41.807Z,5036.00
2022-10-08T07:04:41.791Z,4928.00
2022-10-08T07:05:41.783Z,4940.00
2022-10-08T07:06:41.771Z,5092.00
2022-10-08T07:07:41.781Z,5092.00
2022-10-08T07:08:41.746Z,5216.00
2022-10-08T07:09:41.740Z,5224.00
2022-10-08T07:10:41.726Z,5324.00
2022-10-08T07:11:41.717Z,5384.00
2022-10-08T07:12:41.800Z,5456.00
2022-10-08T07:13:41.694Z,5456.00
2022-10-08T07:14:41.678Z,5508.00
2022-10-08T07:15:41.669Z,5616.00
2022-10-08T07:16:41.699Z,5656.00
2022-10-08T07:17:41.651Z,5748.00
2022-10-08T07:18:41.650Z,5808.00
2022-10-08T07:19:41.827Z,5824.00
2022-10-08T07:20:41.612Z,5868.00
2022-10-08T07:21:41.605Z,6024.00
2022-10-08T07:22:41.594Z,6276.00
2022-10-08T07:23:41.610Z,8348.00
2022-10-08T07:24:41.759Z,9672.00
2022-10-08T07:25:41.864Z,8932.00
2022-10-08T07:26:41.549Z,7008.00
2022-10-08T07:27:44.810Z,8304.00
2022-10-08T07:28:41.602Z,11224.00
2022-10-08T07:29:41.516Z,12480.00
2022-10-08T07:30:41.510Z,12716.00
2022-10-08T07:31:41.563Z,11980.00
2022-10-08T07:32:41.482Z,12260.00
2022-10-08T07:33:41.478Z,12912.00
2022-10-08T07:34:41.465Z,13280.00
2022-10-08T07:35:41.623Z,13708.00
2022-10-08T07:36:41.442Z,13832.00
2022-10-08T07:37:41.430Z,13872.00
2022-10-08T07:38:41.414Z,13932.00
2022-10-08T07:39:41.429Z,14076.00
2022-10-08T07:40:41.393Z,14160.00
2022-10-08T07:41:41.382Z,14208.00
2022-10-08T07:42:41.371Z,14044.00
2022-10-08T07:43:41.439Z,13904.00
2022-10-08T07:44:41.350Z,13756.00
2022-10-08T07:45:41.428Z,13644.00
2022-10-08T07:46:41.333Z,13608.00
2022-10-08T07:47:41.319Z,13532.00
2022-10-08T07:48:41.307Z,14284.00
2022-10-08T07:49:41.296Z,14096.00
2022-10-08T07:50:41.284Z,14340.00
2022-10-08T07:51:41.274Z,14464.00
2022-10-08T07:52:41.260Z,14872.00
2022-10-08T07:53:41.267Z,15212.00
2022-10-08T07:54:41.246Z,15216.00
2022-10-08T07:55:41.435Z,15552.00
2022-10-08T07:56:41.220Z,15520.00
2022-10-08T07:57:41.383Z,15768.00
2022-10-08T07:58:41.321Z,16128.00
2022-10-08T07:59:41.229Z,16320.00
2022-10-08T08:00:41.217Z,16608.00
2022-10-08T08:01:41.201Z,16928.00
2022-10-08T08:02:41.154Z,16992.00
2022-10-08T08:03:41.147Z,17408.00
2022-10-08T08:04:41.129Z,17344.00
2022-10-08T08:05:41.134Z,17600.00
2022-10-08T08:06:41.117Z,17920.00
2022-10-08T08:07:41.098Z,18624.00
2022-10-08T08:08:41.086Z,19712.00
2022-10-08T08:09:41.083Z,19936.00
2022-10-08T08:10:41.079Z,19584.00
2022-10-08T08:11:41.162Z,19552.00
2022-10-08T08:12:41.043Z,20096.00
2022-10-08T08:13:41.034Z,20128.00
2022-10-08T08:14:41.021Z,22144.00
2022-10-08T08:15:41.103Z,21216.00
2022-10-08T08:16:41.112Z,19200.00
2022-10-08T08:17:41.480Z,23968.00
2022-10-08T08:18:41.029Z,24704.00
2022-10-08T08:19:41.253Z,24832.00
2022-10-08T08:20:41.070Z,25728.00
2022-10-08T08:21:41.241Z,14220.00
2022-10-08T08:22:41.124Z,23392.00
2022-10-08T08:23:41.127Z,23456.00
2022-10-08T08:24:41.007Z,24448.00
2022-10-08T08:25:40.928Z,28064.00
2022-10-08T08:26:41.144Z,30848.00
2022-10-08T08:27:40.908Z,27008.00
2022-10-08T08:28:41.317Z,13420.00
2022-10-08T08:29:41.225Z,10180.00
2022-10-08T08:30:41.232Z,9700.00
2022-10-08T08:31:41.334Z,30432.00
2022-10-08T08:32:40.826Z,30816.00
2022-10-08T08:33:40.817Z,26368.00
2022-10-08T08:34:40.811Z,10432.00
2022-10-08T08:35:40.794Z,27712.00
2022-10-08T08:36:40.801Z,29024.00
2022-10-08T08:37:40.778Z,18144.00
2022-10-08T08:38:40.765Z,23040.00
2022-10-08T08:39:40.751Z,23200.00
2022-10-08T08:40:40.737Z,10672.00
2022-10-08T08:41:40.747Z,30112.00
2022-10-08T08:42:40.719Z,12128.00
2022-10-08T08:43:40.803Z,32928.00
2022-10-08T08:44:40.697Z,11984.00
2022-10-08T08:45:48.069Z,33024.00
2022-10-08T08:46:41.744Z,12216.00
2022-10-08T08:47:40.677Z,25728.00
2022-10-08T08:48:40.666Z,36224.00
2022-10-08T08:49:40.647Z,34976.00
2022-10-08T08:50:40.638Z,12848.00
2022-10-08T08:51:40.620Z,17824.00
2022-10-08T08:52:40.610Z,33280.00
2022-10-08T08:53:40.610Z,12512.00
2022-10-08T08:54:40.588Z,32640.00
2022-10-08T08:55:40.577Z,34400.00
2022-10-08T08:56:40.564Z,38560.00
2022-10-08T08:57:40.557Z,19712.00
2022-10-08T08:58:40.544Z,19328.00
2022-10-08T08:59:40.554Z,18784.00
2022-10-08T09:00:40.531Z,19232.00
2022-10-08T09:01:40.578Z,30784.00
2022-10-08T09:02:40.516Z,36704.00
2022-10-08T09:03:40.491Z,38368.00
2022-10-08T09:04:44.882Z,10808.00
2022-10-08T09:05:40.533Z,9112.00
2022-10-08T09:06:40.460Z,15576.00
2022-10-08T09:07:40.451Z,26400.00
2022-10-08T09:08:40.436Z,42688.00
2022-10-08T09:09:40.426Z,45696.00
2022-10-08T09:10:40.413Z,31296.00
2022-10-08T09:11:40.404Z,45056.00
2022-10-08T09:12:40.390Z,25024.00
2022-10-08T09:13:40.394Z,40832.00
2022-10-08T09:14:40.387Z,40768.00
2022-10-08T09:15:40.381Z,14372.00
2022-10-08T09:16:40.381Z,15392.00
2022-10-08T09:17:40.337Z,17664.00
2022-10-08T09:18:40.332Z,22432.00
2022-10-08T09:19:40.313Z,49856.00
2022-10-08T09:20:40.600Z,47072.00
2022-10-08T09:21:40.292Z,46592.00
2022-10-08T09:22:40.284Z,15744.00
2022-10-08T09:23:40.272Z,18976.00
2022-10-08T09:24:40.261Z,15928.00
2022-10-08T09:25:40.273Z,22464.00
2022-10-08T09:26:40.243Z,21408.00
2022-10-08T09:27:40.227Z,26592.00
2022-10-08T09:28:40.298Z,29760.00
2022-10-08T09:29:40.206Z,61536.00
2022-10-08T09:30:40.290Z,63712.00
2022-10-08T09:31:40.215Z,48096.00
2022-10-08T09:32:40.175Z,47488.00
2022-10-08T09:33:40.164Z,57216.00
2022-10-08T09:34:40.164Z,53440.00
2022-10-08T09:35:40.140Z,45632.00
2022-10-08T09:36:40.134Z,29312.00
2022-10-08T09:37:40.116Z,26592.00
2022-10-08T09:38:40.213Z,23712.00
2022-10-08T09:39:40.094Z,18784.00
2022-10-08T09:40:40.090Z,20608.00
2022-10-08T09:41:40.075Z,20640.00
2022-10-08T09:42:40.066Z,18400.00
2022-10-08T09:43:40.133Z,20384.00
2022-10-08T09:44:40.054Z,20416.00
2022-10-08T09:45:40.110Z,15132.00
2022-10-08T09:46:40.026Z,13204.00
2022-10-08T09:47:40.318Z,12296.00
2022-10-08T09:48:40.001Z,20672.00
2022-10-08T09:49:39.988Z,14308.00
2022-10-08T09:50:39.978Z,15900.00
2022-10-08T09:51:39.964Z,17408.00
2022-10-08T09:52:39.958Z,16992.00
2022-10-08T09:53:39.942Z,15416.00
2022-10-08T09:54:39.987Z,15536.00
2022-10-08T09:55:39.921Z,32416.00
2022-10-08T09:56:39.915Z,28640.00
2022-10-08T09:57:43.655Z,26272.00
2022-10-08T09:58:39.906Z,14736.00
2022-10-08T09:59:39.897Z,13584.00
2022-10-08T10:00:39.873Z,13228.00
2022-10-08T10:01:39.942Z,13184.00
2022-10-08T10:02:39.847Z,14324.00
2022-10-08T10:03:39.935Z,15084.00
2022-10-08T10:04:39.829Z,15676.00
2022-10-08T10:05:39.813Z,18848.00
2022-10-08T10:06:39.887Z,58976.00
2022-10-08T10:07:39.798Z,63360.00
2022-10-08T10:08:39.781Z,66560.00
2022-10-08T10:09:39.775Z,64448.00
2022-10-08T10:10:39.762Z,65408.00
2022-10-08T10:11:39.794Z,63168.00
2022-10-08T10:12:39.738Z,47872.00
2022-10-08T10:13:39.723Z,31232.00
2022-10-08T10:14:39.720Z,12880.00
2022-10-08T10:15:39.710Z,11124.00
2022-10-08T10:16:39.770Z,9680.00
2022-10-08T10:17:39.681Z,8236.00
2022-10-08T10:18:39.676Z,6808.00
2022-10-08T10:19:39.684Z,6224.00
2022-10-08T10:20:39.653Z,6064.00
2022-10-08T10:21:39.638Z,6456.00
2022-10-08T10:22:39.654Z,45984.00
2022-10-08T10:23:39.618Z,46368.00
2022-10-08T10:24:39.606Z,47552.00
2022-10-08T10:25:39.599Z,14560.00
2022-10-08T10:26:39.585Z,53376.00
2022-10-08T10:27:39.573Z,50240.00
2022-10-08T10:28:39.646Z,61792.00
2022-10-08T10:29:39.549Z,62176.00
2022-10-08T10:30:39.583Z,23296.00
2022-10-08T10:31:39.528Z,17600.00
2022-10-08T10:32:39.536Z,18400.00
2022-10-08T10:33:39.510Z,30432.00
2022-10-08T10:34:39.501Z,24448.00
2022-10-08T10:35:39.509Z,21056.00
2022-10-08T10:36:39.477Z,31840.00
2022-10-08T10:37:39.460Z,26112.00
2022-10-08T10:38:42.924Z,60224.00
2022-10-08T10:39:39.443Z,59296.00
2022-10-08T10:40:39.447Z,63648.00
2022-10-08T10:41:39.428Z,19776.00
2022-10-08T10:42:39.426Z,26400.00
2022-10-08T10:43:39.407Z,13208.00
2022-10-08T10:44:39.405Z,10532.00
2022-10-08T10:45:39.398Z,10956.00
2022-10-08T10:46:39.462Z,13944.00
2022-10-08T10:47:39.368Z,21024.00
2022-10-08T10:48:39.346Z,60064.00
2022-10-08T10:49:39.334Z,68800.00
2022-10-08T10:50:39.327Z,80832.00
2022-10-08T10:51:39.338Z,85248.00
2022-10-08T10:52:39.299Z,50752.00
2022-10-08T10:53:39.295Z,42976.00
2022-10-08T10:54:39.281Z,71488.00
2022-10-08T10:55:39.266Z,63296.00
2022-10-08T10:56:39.284Z,58496.00
2022-10-08T10:57:39.291Z,36608.00
2022-10-08T10:58:39.584Z,12740.00
2022-10-08T10:59:39.223Z,8704.00
2022-10-08T11:00:39.216Z,9072.00
2022-10-08T11:01:39.283Z,8228.00
2022-10-08T11:02:39.239Z,9380.00
2022-10-08T11:03:39.183Z,10480.00
2022-10-08T11:04:39.173Z,10416.00
2022-10-08T11:05:39.162Z,12400.00
2022-10-08T11:06:39.149Z,11764.00
2022-10-08T11:07:39.172Z,10340.00
2022-10-08T11:08:39.163Z,9224.00
2022-10-08T11:09:39.115Z,8096.00
2022-10-08T11:10:39.106Z,6952.00
2022-10-08T11:11:39.095Z,6644.00
2022-10-08T11:12:39.087Z,7936.00
2022-10-08T11:13:39.071Z,8532.00
2022-10-08T11:14:39.069Z,8328.00
2022-10-08T11:15:39.098Z,8740.00
2022-10-08T11:16:39.039Z,9048.00
2022-10-08T11:17:39.029Z,9188.00
2022-10-08T11:18:39.018Z,8756.00
2022-10-08T11:19:39.026Z,7756.00
2022-10-08T11:20:39.012Z,7824.00
2022-10-08T11:21:38.989Z,8988.00
2022-10-08T11:22:38.977Z,10724.00
2022-10-08T11:23:38.993Z,12212.00
2022-10-08T11:24:38.959Z,12044.00
2022-10-08T11:26:02.096Z,10420.00
2022-10-08T11:26:39.960Z,8644.00
2022-10-08T11:27:38.917Z,7248.00
2022-10-08T11:28:38.975Z,6472.00
2022-10-08T11:29:38.903Z,6128.00
2022-10-08T11:30:38.928Z,6116.00
2022-10-08T11:31:38.891Z,7468.00
2022-10-08T11:32:38.866Z,7668.00
2022-10-08T11:33:39.159Z,8092.00
2022-10-08T11:34:38.842Z,9376.00
2022-10-08T11:35:38.835Z,9524.00
2022-10-08T11:36:38.824Z,9144.00
2022-10-08T11:37:38.809Z,8016.00
2022-10-08T11:38:38.800Z,7712.00
2022-10-08T11:39:38.808Z,8472.00
2022-10-08T11:40:38.778Z,9012.00
2022-10-08T11:41:38.765Z,9192.00
2022-10-08T11:42:42.059Z,11276.00
2022-10-08T11:43:38.740Z,14016.00
2022-10-08T11:44:38.742Z,13644.00
2022-10-08T11:45:38.723Z,10984.00
2022-10-08T11:46:38.748Z,8820.00
2022-10-08T11:47:38.697Z,8872.00
2022-10-08T11:48:38.687Z,10272.00
2022-10-08T11:49:38.673Z,11212.00
2022-10-08T11:50:38.665Z,12392.00
2022-10-08T11:51:38.661Z,12768.00
2022-10-08T11:52:38.642Z,12444.00
2022-10-08T11:53:38.631Z,12336.00
2022-10-08T11:54:38.644Z,12484.00
2022-10-08T11:55:38.631Z,10944.00
2022-10-08T11:56:38.598Z,9612.00
2022-10-08T11:58:06.232Z,9892.00
2022-10-08T11:58:39.611Z,8996.00
2022-10-08T11:59:38.568Z,9688.00
2022-10-08T12:00:38.557Z,12360.00
2022-10-08T12:01:38.544Z,14360.00
2022-10-08T12:02:38.649Z,15452.00
2022-10-08T12:03:38.654Z,17632.00
2022-10-08T12:04:38.511Z,20000.00
2022-10-08T12:05:38.497Z,18560.00
2022-10-08T12:06:38.497Z,15992.00
2022-10-08T12:07:38.484Z,15096.00
2022-10-08T12:08:38.469Z,14844.00
2022-10-08T12:09:38.454Z,15712.00
2022-10-08T12:10:38.453Z,17600.00
2022-10-08T12:11:38.568Z,19968.00
2022-10-08T12:12:38.425Z,19840.00
2022-10-08T12:13:38.416Z,19968.00
2022-10-08T12:14:38.402Z,20608.00
2022-10-08T12:15:38.452Z,20736.00
2022-10-08T12:16:38.408Z,20544.00
2022-10-08T12:17:38.378Z,17728.00
2022-10-08T12:18:38.360Z,12012.00
2022-10-08T12:19:38.349Z,8628.00
2022-10-08T12:20:38.342Z,6804.00
2022-10-08T12:21:38.324Z,5180.00
2022-10-08T12:22:38.315Z,3956.00
2022-10-08T12:23:38.299Z,3104.00
2022-10-08T12:24:38.320Z,2844.00
2022-10-08T12:25:38.283Z,3000.00
2022-10-08T12:26:38.278Z,3436.00
2022-10-08T12:27:38.284Z,3980.00
2022-10-08T12:28:38.373Z,4800.00